sensor_id;sensor_type;location;lat;lon;timestamp;temperature;humidity
45685;DHT22;46836;48.388;16.210;2023-04-01T00:01:48;10.50;99.90
45685;DHT22;46836;48.388;16.210;2023-04-01T00:04:15;10.50;99.90
45685;DHT22;46836;48.388;16.210;2023-04-01T00:06:42;10.50;99.90
45685;DHT22;46836;48.388;16.210;2023-04-01T00:09:09;10.50;99.90
45685;DHT22;46836;48.388;16.210;2023-04-01T00:11:37;10.60;99.90
45685;DHT22;46836;48.388;16.210;2023-04-01T00:14:04;10.60;99.90
45685;DHT22;46836;48.388;16.210;2023-04-01T00:16:31;10.60;99.90
45685;DHT22;46836;48.388;16.210;2023-04-01T00:18:59;10.60;99.90
45685;DHT22;46836;48.388;16.210;2023-04-01T00:21:26;10.60;99.90
45685;DHT22;46836;48.388;16.210;2023-04-01T00:23:53;10.60;99.90
45685;DHT22;46836;48.388;16.210;2023-04-01T00:26:21;10.60;99.90
45685;DHT22;46836;48.388;16.210;2023-04-01T00:28:49;10.60;99.90
45685;DHT22;46836;48.388;16.210;2023-04-01T00:31:16;10.50;99.90
45685;DHT22;46836;48.388;16.210;2023-04-01T00:33:43;10.50;99.90
45685;DHT22;46836;48.388;16.210;2023-04-01T00:36:16;10.50;99.90
45685;DHT22;46836;48.388;16.210;2023-04-01T00:38:44;10.50;99.90
45685;DHT22;46836;48.388;16.210;2023-04-01T00:41:12;10.60;99.90
45685;DHT22;46836;48.388;16.210;2023-04-01T00:43:43;10.60;99.90
45685;DHT22;46836;48.388;16.210;2023-04-01T00:46:10;10.60;99.90
45685;DHT22;46836;48.388;16.210;2023-04-01T00:48:58;10.60;99.90
45685;DHT22;46836;48.388;16.210;2023-04-01T00:51:27;10.70;99.90
45685;DHT22;46836;48.388;16.210;2023-04-01T00:53:58;10.70;99.90
45685;DHT22;46836;48.388;16.210;2023-04-01T00:56:32;10.70;99.90
45685;DHT22;46836;48.388;16.210;2023-04-01T01:02:19;10.70;99.90
45685;DHT22;46836;48.388;16.210;2023-04-01T01:04:47;10.70;99.90
45685;DHT22;46836;48.388;16.210;2023-04-01T01:10:13;10.70;99.90
45685;DHT22;46836;48.388;16.210;2023-04-01T01:13:04;10.60;99.90
45685;DHT22;46836;48.388;16.210;2023-04-01T01:15:47;10.60;99.90
45685;DHT22;46836;48.388;16.210;2023-04-01T01:24:11;10.50;99.90
45685;DHT22;46836;48.388;16.210;2023-04-01T01:32:24;10.50;99.90
45685;DHT22;46836;48.388;16.210;2023-04-01T01:37:33;10.50;99.90
45685;DHT22;46836;48.388;16.210;2023-04-01T01:40:04;10.50;99.90
45685;DHT22;46836;48.388;16.210;2023-04-01T01:42:35;10.50;99.90
45685;DHT22;46836;48.388;16.210;2023-04-01T01:45:06;10.50;99.90
45685;DHT22;46836;48.388;16.210;2023-04-01T01:47:34;10.50;99.90
45685;DHT22;46836;48.388;16.210;2023-04-01T01:50:03;10.50;99.90
45685;DHT22;46836;48.388;16.210;2023-04-01T01:52:31;10.50;99.90
45685;DHT22;46836;48.388;16.210;2023-04-01T01:54:58;10.60;99.90
45685;DHT22;46836;48.388;16.210;2023-04-01T01:57:29;10.60;99.90
45685;DHT22;46836;48.388;16.210;2023-04-01T02:00:07;10.50;99.90
45685;DHT22;46836;48.388;16.210;2023-04-01T02:02:46;10.50;99.90
45685;DHT22;46836;48.388;16.210;2023-04-01T02:05:19;10.60;99.90
45685;DHT22;46836;48.388;16.210;2023-04-01T02:08:04;10.50;99.90
45685;DHT22;46836;48.388;16.210;2023-04-01T02:10:36;10.60;99.90
45685;DHT22;46836;48.388;16.210;2023-04-01T02:13:09;10.50;99.90
45685;DHT22;46836;48.388;16.210;2023-04-01T02:15:44;10.50;99.90
45685;DHT22;46836;48.388;16.210;2023-04-01T02:18:13;10.60;99.90
45685;DHT22;46836;48.388;16.210;2023-04-01T02:20:43;10.50;99.90
45685;DHT22;46836;48.388;16.210;2023-04-01T02:23:11;10.50;99.90
45685;DHT22;46836;48.388;16.210;2023-04-01T02:25:40;10.50;99.90
45685;DHT22;46836;48.388;16.210;2023-04-01T02:28:09;10.50;99.90
45685;DHT22;46836;48.388;16.210;2023-04-01T02:30:39;10.50;99.90
45685;DHT22;46836;48.388;16.210;2023-04-01T02:33:08;10.50;99.90
45685;DHT22;46836;48.388;16.210;2023-04-01T02:35:36;10.50;99.90
45685;DHT22;46836;48.388;16.210;2023-04-01T02:38:07;10.50;99.90
45685;DHT22;46836;48.388;16.210;2023-04-01T02:40:49;10.50;99.90
45685;DHT22;46836;48.388;16.210;2023-04-01T02:43:16;10.50;99.90
45685;DHT22;46836;48.388;16.210;2023-04-01T02:45:44;10.40;99.90
45685;DHT22;46836;48.388;16.210;2023-04-01T02:48:11;10.40;99.90
45685;DHT22;46836;48.388;16.210;2023-04-01T02:50:40;10.40;99.90
45685;DHT22;46836;48.388;16.210;2023-04-01T02:53:07;10.40;99.90
45685;DHT22;46836;48.388;16.210;2023-04-01T02:55:35;10.30;99.90
45685;DHT22;46836;48.388;16.210;2023-04-01T02:58:02;10.30;99.90
45685;DHT22;46836;48.388;16.210;2023-04-01T03:00:30;10.30;99.90
45685;DHT22;46836;48.388;16.210;2023-04-01T03:02:57;10.20;99.90
45685;DHT22;46836;48.388;16.210;2023-04-01T03:05:24;10.20;99.90
45685;DHT22;46836;48.388;16.210;2023-04-01T03:07:51;10.10;99.90
45685;DHT22;46836;48.388;16.210;2023-04-01T03:10:18;10.10;99.90
45685;DHT22;46836;48.388;16.210;2023-04-01T03:12:45;10.10;99.90
45685;DHT22;46836;48.388;16.210;2023-04-01T03:15:13;10.10;99.90
45685;DHT22;46836;48.388;16.210;2023-04-01T03:17:42;10.10;99.90
45685;DHT22;46836;48.388;16.210;2023-04-01T03:20:10;10.00;99.90
45685;DHT22;46836;48.388;16.210;2023-04-01T03:22:38;10.00;99.90
45685;DHT22;46836;48.388;16.210;2023-04-01T03:25:08;10.00;99.90
45685;DHT22;46836;48.388;16.210;2023-04-01T03:27:36;10.00;99.90
45685;DHT22;46836;48.388;16.210;2023-04-01T03:30:05;10.00;99.90
45685;DHT22;46836;48.388;16.210;2023-04-01T03:32:32;10.00;99.90
45685;DHT22;46836;48.388;16.210;2023-04-01T03:34:59;9.90;99.90
45685;DHT22;46836;48.388;16.210;2023-04-01T03:37:26;10.00;99.90
45685;DHT22;46836;48.388;16.210;2023-04-01T03:39:54;10.00;99.90
45685;DHT22;46836;48.388;16.210;2023-04-01T03:42:21;10.00;99.90
45685;DHT22;46836;48.388;16.210;2023-04-01T03:44:48;10.00;99.90
45685;DHT22;46836;48.388;16.210;2023-04-01T03:47:15;10.00;99.90
45685;DHT22;46836;48.388;16.210;2023-04-01T03:49:42;10.00;99.90
45685;DHT22;46836;48.388;16.210;2023-04-01T03:52:10;10.00;99.90
45685;DHT22;46836;48.388;16.210;2023-04-01T03:54:38;10.00;99.90
45685;DHT22;46836;48.388;16.210;2023-04-01T03:57:05;10.00;99.90
45685;DHT22;46836;48.388;16.210;2023-04-01T03:59:32;10.00;99.90
45685;DHT22;46836;48.388;16.210;2023-04-01T04:01:59;10.00;99.90
45685;DHT22;46836;48.388;16.210;2023-04-01T04:04:27;10.00;99.90
45685;DHT22;46836;48.388;16.210;2023-04-01T04:06:54;10.00;99.90
45685;DHT22;46836;48.388;16.210;2023-04-01T04:09:22;9.90;99.90
45685;DHT22;46836;48.388;16.210;2023-04-01T04:11:49;9.90;99.90
45685;DHT22;46836;48.388;16.210;2023-04-01T04:14:17;9.90;99.90
45685;DHT22;46836;48.388;16.210;2023-04-01T04:16:44;9.90;99.90
45685;DHT22;46836;48.388;16.210;2023-04-01T04:19:11;9.90;99.90
45685;DHT22;46836;48.388;16.210;2023-04-01T04:21:40;9.90;99.90
45685;DHT22;46836;48.388;16.210;2023-04-01T04:24:07;9.90;99.90
45685;DHT22;46836;48.388;16.210;2023-04-01T04:26:34;9.80;99.90
45685;DHT22;46836;48.388;16.210;2023-04-01T04:29:02;9.80;99.90
45685;DHT22;46836;48.388;16.210;2023-04-01T04:31:29;9.80;99.90
45685;DHT22;46836;48.388;16.210;2023-04-01T04:33:58;9.80;99.90
45685;DHT22;46836;48.388;16.210;2023-04-01T04:36:25;9.70;99.90
45685;DHT22;46836;48.388;16.210;2023-04-01T04:38:52;9.70;99.90
45685;DHT22;46836;48.388;16.210;2023-04-01T04:41:19;9.70;99.90
45685;DHT22;46836;48.388;16.210;2023-04-01T04:43:54;9.60;99.90
45685;DHT22;46836;48.388;16.210;2023-04-01T04:46:22;9.60;99.90
45685;DHT22;46836;48.388;16.210;2023-04-01T04:48:49;9.60;99.90
45685;DHT22;46836;48.388;16.210;2023-04-01T04:51:18;9.60;99.90
45685;DHT22;46836;48.388;16.210;2023-04-01T04:53:47;9.60;99.90
45685;DHT22;46836;48.388;16.210;2023-04-01T04:56:20;9.60;99.90
45685;DHT22;46836;48.388;16.210;2023-04-01T04:58:48;9.60;99.90
45685;DHT22;46836;48.388;16.210;2023-04-01T05:01:16;9.60;99.90
45685;DHT22;46836;48.388;16.210;2023-04-01T05:03:44;9.60;99.90
45685;DHT22;46836;48.388;16.210;2023-04-01T05:06:13;9.60;99.90
45685;DHT22;46836;48.388;16.210;2023-04-01T05:08:42;9.60;99.90
45685;DHT22;46836;48.388;16.210;2023-04-01T05:11:14;9.60;99.90
45685;DHT22;46836;48.388;16.210;2023-04-01T05:13:42;9.60;99.90
45685;DHT22;46836;48.388;16.210;2023-04-01T05:16:12;9.60;99.90
45685;DHT22;46836;48.388;16.210;2023-04-01T05:18:39;9.70;99.90
45685;DHT22;46836;48.388;16.210;2023-04-01T05:21:08;9.70;99.90
45685;DHT22;46836;48.388;16.210;2023-04-01T05:23:36;9.70;99.90
45685;DHT22;46836;48.388;16.210;2023-04-01T05:26:09;9.80;99.90
45685;DHT22;46836;48.388;16.210;2023-04-01T05:28:36;9.80;99.90
45685;DHT22;46836;48.388;16.210;2023-04-01T05:31:05;9.90;99.90
45685;DHT22;46836;48.388;16.210;2023-04-01T05:33:32;9.80;99.90
45685;DHT22;46836;48.388;16.210;2023-04-01T05:36:07;9.90;99.90
45685;DHT22;46836;48.388;16.210;2023-04-01T05:38:34;9.90;99.90
45685;DHT22;46836;48.388;16.210;2023-04-01T05:41:02;10.00;99.90
45685;DHT22;46836;48.388;16.210;2023-04-01T05:43:30;10.00;99.90
45685;DHT22;46836;48.388;16.210;2023-04-01T05:45:57;10.00;99.90
45685;DHT22;46836;48.388;16.210;2023-04-01T05:48:24;10.10;99.90
45685;DHT22;46836;48.388;16.210;2023-04-01T05:50:51;10.10;99.90
45685;DHT22;46836;48.388;16.210;2023-04-01T05:53:20;10.20;99.90
45685;DHT22;46836;48.388;16.210;2023-04-01T05:55:47;10.30;99.90
45685;DHT22;46836;48.388;16.210;2023-04-01T05:58:14;10.40;99.90
45685;DHT22;46836;48.388;16.210;2023-04-01T06:00:41;10.40;99.90
45685;DHT22;46836;48.388;16.210;2023-04-01T06:03:08;10.40;99.90
45685;DHT22;46836;48.388;16.210;2023-04-01T06:05:44;10.50;99.90
45685;DHT22;46836;48.388;16.210;2023-04-01T06:08:14;10.50;99.90
45685;DHT22;46836;48.388;16.210;2023-04-01T06:30:44;10.70;99.90
45685;DHT22;46836;48.388;16.210;2023-04-01T06:33:25;10.70;99.90
45685;DHT22;46836;48.388;16.210;2023-04-01T06:42:05;10.80;99.90
45685;DHT22;46836;48.388;16.210;2023-04-01T06:45:02;10.90;99.90
45685;DHT22;46836;48.388;16.210;2023-04-01T06:47:52;10.90;99.90
45685;DHT22;46836;48.388;16.210;2023-04-01T06:50:26;10.90;99.90
45685;DHT22;46836;48.388;16.210;2023-04-01T06:53:12;10.90;99.90
45685;DHT22;46836;48.388;16.210;2023-04-01T06:56:00;10.90;99.90
45685;DHT22;46836;48.388;16.210;2023-04-01T07:04:23;11.00;99.90
45685;DHT22;46836;48.388;16.210;2023-04-01T07:07:09;11.00;99.90
45685;DHT22;46836;48.388;16.210;2023-04-01T07:09:41;11.00;99.90
45685;DHT22;46836;48.388;16.210;2023-04-01T07:12:25;11.00;99.90
45685;DHT22;46836;48.388;16.210;2023-04-01T07:14:57;10.90;99.90
45685;DHT22;46836;48.388;16.210;2023-04-01T07:17:31;10.90;99.90
45685;DHT22;46836;48.388;16.210;2023-04-01T07:20:10;10.90;99.90
45685;DHT22;46836;48.388;16.210;2023-04-01T07:22:51;10.90;99.90
45685;DHT22;46836;48.388;16.210;2023-04-01T07:25:23;10.90;99.90
45685;DHT22;46836;48.388;16.210;2023-04-01T07:28:04;10.80;99.90
45685;DHT22;46836;48.388;16.210;2023-04-01T07:33:42;11.00;99.90
45685;DHT22;46836;48.388;16.210;2023-04-01T07:36:38;11.10;99.90
45685;DHT22;46836;48.388;16.210;2023-04-01T07:58:18;12.90;99.90
45685;DHT22;46836;48.388;16.210;2023-04-01T08:14:44;13.70;99.90
45685;DHT22;46836;48.388;16.210;2023-04-01T08:17:40;13.80;99.90
45685;DHT22;46836;48.388;16.210;2023-04-01T08:20:18;13.90;99.90
45685;DHT22;46836;48.388;16.210;2023-04-01T08:22:59;13.90;99.90
45685;DHT22;46836;48.388;16.210;2023-04-01T08:25:29;13.80;99.90
45685;DHT22;46836;48.388;16.210;2023-04-01T08:30:45;14.00;99.90
45685;DHT22;46836;48.388;16.210;2023-04-01T08:35:57;14.40;99.90
45685;DHT22;46836;48.388;16.210;2023-04-01T08:38:53;14.50;99.90
45685;DHT22;46836;48.388;16.210;2023-04-01T08:41:45;14.50;99.90
45685;DHT22;46836;48.388;16.210;2023-04-01T08:57:42;14.50;99.90
45685;DHT22;46836;48.388;16.210;2023-04-01T09:17:05;14.90;99.90
45685;DHT22;46836;48.388;16.210;2023-04-01T09:33:53;14.50;99.90
45685;DHT22;46836;48.388;16.210;2023-04-01T09:36:43;14.50;99.90
45685;DHT22;46836;48.388;16.210;2023-04-01T09:44:37;14.20;99.90
45685;DHT22;46836;48.388;16.210;2023-04-01T10:12:00;15.30;99.90
45685;DHT22;46836;48.388;16.210;2023-04-01T10:46:04;15.30;99.90
45685;DHT22;46836;48.388;16.210;2023-04-01T10:54:47;15.80;99.90
45685;DHT22;46836;48.388;16.210;2023-04-01T11:00:18;15.80;99.90
45685;DHT22;46836;48.388;16.210;2023-04-01T11:09:29;15.70;99.90
45685;DHT22;46836;48.388;16.210;2023-04-01T11:29:27;15.20;99.90
45685;DHT22;46836;48.388;16.210;2023-04-01T11:46:27;15.80;99.90
45685;DHT22;46836;48.388;16.210;2023-04-01T11:58:23;16.00;99.90
45685;DHT22;46836;48.388;16.210;2023-04-01T12:03:41;16.10;99.90
45685;DHT22;46836;48.388;16.210;2023-04-01T12:37:29;17.10;99.90
45685;DHT22;46836;48.388;16.210;2023-04-01T12:45:49;17.80;99.90
45685;DHT22;46836;48.388;16.210;2023-04-01T12:57:04;17.80;98.30
45685;DHT22;46836;48.388;16.210;2023-04-01T13:00:16;17.70;99.20
45685;DHT22;46836;48.388;16.210;2023-04-01T13:03:02;17.60;97.90
45685;DHT22;46836;48.388;16.210;2023-04-01T13:08:34;18.30;97.10
45685;DHT22;46836;48.388;16.210;2023-04-01T13:16:27;18.40;97.10
45685;DHT22;46836;48.388;16.210;2023-04-01T13:19:25;18.60;99.40
45685;DHT22;46836;48.388;16.210;2023-04-01T13:21:58;18.60;96.40
45685;DHT22;46836;48.388;16.210;2023-04-01T13:27:36;18.60;98.90
45685;DHT22;46836;48.388;16.210;2023-04-01T13:32:50;18.30;95.20
45685;DHT22;46836;48.388;16.210;2023-04-01T13:36:10;18.40;97.60
45685;DHT22;46836;48.388;16.210;2023-04-01T13:41:21;18.80;96.20
45685;DHT22;46836;48.388;16.210;2023-04-01T13:43:58;18.50;94.90
45685;DHT22;46836;48.388;16.210;2023-04-01T13:58:23;17.70;95.70
45685;DHT22;46836;48.388;16.210;2023-04-01T14:01:15;17.60;97.00
45685;DHT22;46836;48.388;16.210;2023-04-01T14:20:02;16.80;96.60
45685;DHT22;46836;48.388;16.210;2023-04-01T14:43:14;17.30;95.80
45685;DHT22;46836;48.388;16.210;2023-04-01T14:50:57;17.60;96.00
45685;DHT22;46836;48.388;16.210;2023-04-01T14:53:33;17.60;96.00
45685;DHT22;46836;48.388;16.210;2023-04-01T14:56:02;17.80;96.30
45685;DHT22;46836;48.388;16.210;2023-04-01T14:58:46;17.90;95.90
45685;DHT22;46836;48.388;16.210;2023-04-01T15:04:32;18.30;95.20
45685;DHT22;46836;48.388;16.210;2023-04-01T15:07:35;18.30;92.10
45685;DHT22;46836;48.388;16.210;2023-04-01T15:21:46;17.80;92.80
45685;DHT22;46836;48.388;16.210;2023-04-01T15:27:01;17.60;92.50
45685;DHT22;46836;48.388;16.210;2023-04-01T15:32:30;17.90;91.70
45685;DHT22;46836;48.388;16.210;2023-04-01T15:35:00;17.90;92.90
45685;DHT22;46836;48.388;16.210;2023-04-01T15:37:47;18.00;94.50
45685;DHT22;46836;48.388;16.210;2023-04-01T15:40:42;17.90;93.00
45685;DHT22;46836;48.388;16.210;2023-04-01T15:46:09;17.80;93.70
45685;DHT22;46836;48.388;16.210;2023-04-01T15:48:40;17.80;94.40
45685;DHT22;46836;48.388;16.210;2023-04-01T15:59:51;17.10;95.30
45685;DHT22;46836;48.388;16.210;2023-04-01T16:11:37;16.10;97.60
45685;DHT22;46836;48.388;16.210;2023-04-01T16:14:28;16.00;98.00
45685;DHT22;46836;48.388;16.210;2023-04-01T16:23:03;15.60;99.10
45685;DHT22;46836;48.388;16.210;2023-04-01T16:25:39;15.50;99.30
45685;DHT22;46836;48.388;16.210;2023-04-01T16:39:33;15.20;99.90
45685;DHT22;46836;48.388;16.210;2023-04-01T16:45:01;15.10;99.90
45685;DHT22;46836;48.388;16.210;2023-04-01T16:47:50;15.10;99.90
45685;DHT22;46836;48.388;16.210;2023-04-01T16:50:39;15.10;99.90
45685;DHT22;46836;48.388;16.210;2023-04-01T16:53:17;15.00;99.90
45685;DHT22;46836;48.388;16.210;2023-04-01T16:55:52;15.00;99.90
45685;DHT22;46836;48.388;16.210;2023-04-01T16:58:33;14.90;99.90
45685;DHT22;46836;48.388;16.210;2023-04-01T17:01:20;14.90;99.90
45685;DHT22;46836;48.388;16.210;2023-04-01T17:03:53;14.80;99.90
45685;DHT22;46836;48.388;16.210;2023-04-01T17:06:47;14.80;99.90
45685;DHT22;46836;48.388;16.210;2023-04-01T17:09:30;14.80;99.90
45685;DHT22;46836;48.388;16.210;2023-04-01T17:12:22;14.70;99.90
45685;DHT22;46836;48.388;16.210;2023-04-01T17:15:57;14.70;99.90
45685;DHT22;46836;48.388;16.210;2023-04-01T17:21:13;14.40;99.90
45685;DHT22;46836;48.388;16.210;2023-04-01T17:23:52;14.30;99.90
45685;DHT22;46836;48.388;16.210;2023-04-01T17:26:43;14.20;99.90
45685;DHT22;46836;48.388;16.210;2023-04-01T17:29:37;14.10;99.90
45685;DHT22;46836;48.388;16.210;2023-04-01T17:35:12;13.80;99.90
45685;DHT22;46836;48.388;16.210;2023-04-01T17:40:29;13.50;99.90
45685;DHT22;46836;48.388;16.210;2023-04-01T17:45:56;13.40;99.90
45685;DHT22;46836;48.388;16.210;2023-04-01T17:48:41;13.30;99.90
45685;DHT22;46836;48.388;16.210;2023-04-01T17:52:10;13.20;99.90
45685;DHT22;46836;48.388;16.210;2023-04-01T18:06:46;13.00;99.90
45685;DHT22;46836;48.388;16.210;2023-04-01T18:12:05;12.80;99.90
45685;DHT22;46836;48.388;16.210;2023-04-01T18:23:44;12.60;99.90
45685;DHT22;46836;48.388;16.210;2023-04-01T18:25:55;12.60;99.90
45685;DHT22;46836;48.388;16.210;2023-04-01T18:28:39;12.50;99.90
45685;DHT22;46836;48.388;16.210;2023-04-01T18:31:20;12.40;99.90
45685;DHT22;46836;48.388;16.210;2023-04-01T18:34:13;12.40;99.90
45685;DHT22;46836;48.388;16.210;2023-04-01T18:36:57;12.30;99.90
45685;DHT22;46836;48.388;16.210;2023-04-01T18:39:37;12.20;99.90
45685;DHT22;46836;48.388;16.210;2023-04-01T18:45:32;12.10;99.90
45685;DHT22;46836;48.388;16.210;2023-04-01T18:53:57;12.00;99.90
45685;DHT22;46836;48.388;16.210;2023-04-01T18:56:34;11.90;99.90
45685;DHT22;46836;48.388;16.210;2023-04-01T18:59:29;11.90;99.90
45685;DHT22;46836;48.388;16.210;2023-04-01T19:05:36;11.90;99.90
45685;DHT22;46836;48.388;16.210;2023-04-01T19:08:18;11.90;99.90
45685;DHT22;46836;48.388;16.210;2023-04-01T19:19:07;11.70;99.90
45685;DHT22;46836;48.388;16.210;2023-04-01T19:21:44;11.60;99.90
45685;DHT22;46836;48.388;16.210;2023-04-01T19:29:46;11.50;99.90
45685;DHT22;46836;48.388;16.210;2023-04-01T19:37:51;11.40;99.90
45685;DHT22;46836;48.388;16.210;2023-04-01T19:43:43;11.30;99.90
45685;DHT22;46836;48.388;16.210;2023-04-01T19:46:37;11.30;99.90
45685;DHT22;46836;48.388;16.210;2023-04-01T19:49:23;11.20;99.90
45685;DHT22;46836;48.388;16.210;2023-04-01T19:52:38;11.20;99.90
45685;DHT22;46836;48.388;16.210;2023-04-01T20:00:25;11.10;99.90
45685;DHT22;46836;48.388;16.210;2023-04-01T20:03:39;11.10;99.90
45685;DHT22;46836;48.388;16.210;2023-04-01T20:17:21;10.90;99.90
45685;DHT22;46836;48.388;16.210;2023-04-01T20:36:34;10.80;99.90
45685;DHT22;46836;48.388;16.210;2023-04-01T20:39:20;10.70;99.90
45685;DHT22;46836;48.388;16.210;2023-04-01T20:52:56;10.60;99.90
45685;DHT22;46836;48.388;16.210;2023-04-01T20:58:08;10.60;99.90
45685;DHT22;46836;48.388;16.210;2023-04-01T21:03:35;10.50;99.90
45685;DHT22;46836;48.388;16.210;2023-04-01T21:09:06;10.50;99.90
45685;DHT22;46836;48.388;16.210;2023-04-01T21:21:02;10.60;99.90
45685;DHT22;46836;48.388;16.210;2023-04-01T21:24:29;10.60;99.90
45685;DHT22;46836;48.388;16.210;2023-04-01T21:30:03;10.60;99.90
45685;DHT22;46836;48.388;16.210;2023-04-01T21:38:31;10.70;99.90
45685;DHT22;46836;48.388;16.210;2023-04-01T21:41:05;10.70;99.90
45685;DHT22;46836;48.388;16.210;2023-04-01T21:58:53;10.70;99.90
45685;DHT22;46836;48.388;16.210;2023-04-01T22:06:37;10.70;99.90
45685;DHT22;46836;48.388;16.210;2023-04-01T22:10:00;10.70;99.90
45685;DHT22;46836;48.388;16.210;2023-04-01T22:12:30;10.70;99.90
45685;DHT22;46836;48.388;16.210;2023-04-01T22:15:13;10.70;99.90
45685;DHT22;46836;48.388;16.210;2023-04-01T22:17:53;10.70;99.90
45685;DHT22;46836;48.388;16.210;2023-04-01T22:20:34;10.70;99.90
45685;DHT22;46836;48.388;16.210;2023-04-01T22:23:26;10.70;99.90
45685;DHT22;46836;48.388;16.210;2023-04-01T22:28:51;10.70;99.90
45685;DHT22;46836;48.388;16.210;2023-04-01T22:31:28;10.70;99.90
45685;DHT22;46836;48.388;16.210;2023-04-01T22:34:11;10.70;99.90
45685;DHT22;46836;48.388;16.210;2023-04-01T22:42:40;10.60;99.90
45685;DHT22;46836;48.388;16.210;2023-04-01T22:56:03;10.60;99.90
45685;DHT22;46836;48.388;16.210;2023-04-01T22:58:41;10.60;99.90
45685;DHT22;46836;48.388;16.210;2023-04-01T23:01:16;10.70;99.90
45685;DHT22;46836;48.388;16.210;2023-04-01T23:03:49;10.70;99.90
45685;DHT22;46836;48.388;16.210;2023-04-01T23:06:26;10.70;99.90
45685;DHT22;46836;48.388;16.210;2023-04-01T23:09:29;10.70;99.90
45685;DHT22;46836;48.388;16.210;2023-04-01T23:12:03;10.70;99.90
45685;DHT22;46836;48.388;16.210;2023-04-01T23:14:51;10.70;99.90
45685;DHT22;46836;48.388;16.210;2023-04-01T23:25:22;10.80;99.90
45685;DHT22;46836;48.388;16.210;2023-04-01T23:33:19;10.80;99.90
45685;DHT22;46836;48.388;16.210;2023-04-01T23:36:00;10.80;99.90
45685;DHT22;46836;48.388;16.210;2023-04-01T23:38:39;10.80;99.90
45685;DHT22;46836;48.388;16.210;2023-04-01T23:41:29;10.80;99.90
45685;DHT22;46836;48.388;16.210;2023-04-01T23:44:08;10.80;99.90
45685;DHT22;46836;48.388;16.210;2023-04-01T23:46:36;10.80;99.90
45685;DHT22;46836;48.388;16.210;2023-04-01T23:49:13;10.70;99.90
45685;DHT22;46836;48.388;16.210;2023-04-01T23:51:50;10.70;99.90
45685;DHT22;46836;48.388;16.210;2023-04-01T23:54:33;10.70;99.90
45685;DHT22;46836;48.388;16.210;2023-04-01T23:57:09;10.70;99.90
45685;DHT22;46836;48.388;16.210;2023-04-01T23:59:37;10.70;99.90
